sensor_id;sensor_type;location;lat;lon;timestamp;P1;durP1;ratioP1;P2;durP2;ratioP2
28447;SDS011;15675;52.870;-1.416;2023-01-28T00:01:41;29.48;;;16.58;;
28447;SDS011;15675;52.870;-1.416;2023-01-28T00:04:06;31.00;;;15.90;;
28447;SDS011;15675;52.870;-1.416;2023-01-28T00:06:32;32.83;;;16.48;;
28447;SDS011;15675;52.870;-1.416;2023-01-28T00:08:57;28.70;;;16.98;;
28447;SDS011;15675;52.870;-1.416;2023-01-28T00:11:23;27.50;;;16.17;;
28447;SDS011;15675;52.870;-1.416;2023-01-28T00:13:50;36.15;;;19.02;;
28447;SDS011;15675;52.870;-1.416;2023-01-28T00:16:17;30.45;;;17.25;;
28447;SDS011;15675;52.870;-1.416;2023-01-28T00:18:42;29.50;;;17.10;;
28447;SDS011;15675;52.870;-1.416;2023-01-28T00:21:12;30.48;;;17.05;;
28447;SDS011;15675;52.870;-1.416;2023-01-28T00:23:39;29.20;;;16.23;;
28447;SDS011;15675;52.870;-1.416;2023-01-28T00:26:09;28.75;;;16.80;;
28447;SDS011;15675;52.870;-1.416;2023-01-28T00:28:37;32.03;;;17.23;;
28447;SDS011;15675;52.870;-1.416;2023-01-28T00:31:06;37.70;;;16.63;;
28447;SDS011;15675;52.870;-1.416;2023-01-28T00:33:34;30.38;;;17.95;;
28447;SDS011;15675;52.870;-1.416;2023-01-28T00:36:00;30.42;;;17.50;;
28447;SDS011;15675;52.870;-1.416;2023-01-28T00:38:27;27.42;;;16.90;;
28447;SDS011;15675;52.870;-1.416;2023-01-28T00:40:53;31.15;;;18.52;;
28447;SDS011;15675;52.870;-1.416;2023-01-28T00:43:19;25.77;;;16.65;;
28447;SDS011;15675;52.870;-1.416;2023-01-28T00:45:45;28.65;;;17.45;;
28447;SDS011;15675;52.870;-1.416;2023-01-28T00:48:11;32.65;;;17.70;;
28447;SDS011;15675;52.870;-1.416;2023-01-28T00:50:37;34.45;;;18.65;;
28447;SDS011;15675;52.870;-1.416;2023-01-28T00:53:03;27.58;;;18.70;;
28447;SDS011;15675;52.870;-1.416;2023-01-28T00:55:29;32.00;;;19.23;;
28447;SDS011;15675;52.870;-1.416;2023-01-28T00:57:54;33.28;;;19.05;;
28447;SDS011;15675;52.870;-1.416;2023-01-28T01:00:20;32.88;;;18.33;;
28447;SDS011;15675;52.870;-1.416;2023-01-28T01:02:46;32.03;;;19.25;;
28447;SDS011;15675;52.870;-1.416;2023-01-28T01:05:11;35.38;;;18.35;;
28447;SDS011;15675;52.870;-1.416;2023-01-28T01:07:37;31.70;;;18.33;;
28447;SDS011;15675;52.870;-1.416;2023-01-28T01:10:14;32.10;;;17.95;;
28447;SDS011;15675;52.870;-1.416;2023-01-28T01:12:41;42.15;;;19.23;;
28447;SDS011;15675;52.870;-1.416;2023-01-28T01:15:07;31.98;;;20.83;;
28447;SDS011;15675;52.870;-1.416;2023-01-28T01:17:35;28.00;;;18.02;;
28447;SDS011;15675;52.870;-1.416;2023-01-28T01:20:02;33.63;;;19.25;;
28447;SDS011;15675;52.870;-1.416;2023-01-28T01:22:31;32.65;;;20.05;;
28447;SDS011;15675;52.870;-1.416;2023-01-28T01:24:58;29.83;;;19.00;;
28447;SDS011;15675;52.870;-1.416;2023-01-28T01:27:24;35.70;;;20.75;;
28447;SDS011;15675;52.870;-1.416;2023-01-28T01:29:49;31.45;;;20.02;;
28447;SDS011;15675;52.870;-1.416;2023-01-28T01:32:15;33.35;;;19.27;;
28447;SDS011;15675;52.870;-1.416;2023-01-28T01:34:40;33.40;;;19.30;;
28447;SDS011;15675;52.870;-1.416;2023-01-28T01:37:06;38.30;;;20.83;;
28447;SDS011;15675;52.870;-1.416;2023-01-28T01:39:33;34.90;;;20.70;;
28447;SDS011;15675;52.870;-1.416;2023-01-28T01:41:58;42.15;;;22.15;;
28447;SDS011;15675;52.870;-1.416;2023-01-28T01:47:18;36.63;;;22.13;;
28447;SDS011;15675;52.870;-1.416;2023-01-28T01:49:47;40.17;;;24.05;;
28447;SDS011;15675;52.870;-1.416;2023-01-28T01:52:14;37.70;;;22.85;;
28447;SDS011;15675;52.870;-1.416;2023-01-28T01:54:44;40.30;;;22.13;;
28447;SDS011;15675;52.870;-1.416;2023-01-28T01:57:16;45.40;;;23.67;;
28447;SDS011;15675;52.870;-1.416;2023-01-28T01:59:48;37.08;;;22.98;;
28447;SDS011;15675;52.870;-1.416;2023-01-28T02:02:15;34.83;;;23.48;;
28447;SDS011;15675;52.870;-1.416;2023-01-28T02:04:42;44.40;;;23.75;;
28447;SDS011;15675;52.870;-1.416;2023-01-28T02:07:09;42.75;;;24.38;;
28447;SDS011;15675;52.870;-1.416;2023-01-28T02:09:37;40.38;;;23.20;;
28447;SDS011;15675;52.870;-1.416;2023-01-28T02:14:34;42.22;;;25.40;;
28447;SDS011;15675;52.870;-1.416;2023-01-28T02:17:05;45.67;;;26.08;;
28447;SDS011;15675;52.870;-1.416;2023-01-28T02:19:33;42.05;;;26.75;;
28447;SDS011;15675;52.870;-1.416;2023-01-28T02:30:43;43.35;;;27.17;;
28447;SDS011;15675;52.870;-1.416;2023-01-28T02:36:18;44.80;;;27.25;;
28447;SDS011;15675;52.870;-1.416;2023-01-28T02:38:52;47.90;;;27.23;;
28447;SDS011;15675;52.870;-1.416;2023-01-28T02:41:25;49.97;;;27.50;;
28447;SDS011;15675;52.870;-1.416;2023-01-28T02:43:55;47.63;;;27.67;;
28447;SDS011;15675;52.870;-1.416;2023-01-28T02:46:32;47.55;;;26.95;;
28447;SDS011;15675;52.870;-1.416;2023-01-28T02:49:27;44.75;;;25.45;;
28447;SDS011;15675;52.870;-1.416;2023-01-28T02:57:06;47.83;;;28.60;;
28447;SDS011;15675;52.870;-1.416;2023-01-28T03:02:22;42.05;;;26.55;;
28447;SDS011;15675;52.870;-1.416;2023-01-28T03:04:59;42.50;;;26.17;;
28447;SDS011;15675;52.870;-1.416;2023-01-28T03:07:31;43.03;;;28.38;;
28447;SDS011;15675;52.870;-1.416;2023-01-28T03:10:02;46.65;;;27.60;;
28447;SDS011;15675;52.870;-1.416;2023-01-28T03:12:30;43.75;;;26.08;;
28447;SDS011;15675;52.870;-1.416;2023-01-28T03:15:19;41.35;;;26.23;;
28447;SDS011;15675;52.870;-1.416;2023-01-28T03:18:09;46.80;;;27.33;;
28447;SDS011;15675;52.870;-1.416;2023-01-28T03:21:26;41.30;;;25.42;;
28447;SDS011;15675;52.870;-1.416;2023-01-28T03:27:13;44.67;;;26.08;;
28447;SDS011;15675;52.870;-1.416;2023-01-28T03:30:03;45.45;;;26.70;;
28447;SDS011;15675;52.870;-1.416;2023-01-28T03:32:52;46.55;;;27.60;;
28447;SDS011;15675;52.870;-1.416;2023-01-28T03:35:38;46.25;;;26.48;;
28447;SDS011;15675;52.870;-1.416;2023-01-28T03:38:22;46.20;;;28.13;;
28447;SDS011;15675;52.870;-1.416;2023-01-28T03:40:50;41.13;;;24.25;;
28447;SDS011;15675;52.870;-1.416;2023-01-28T03:43:19;49.60;;;26.60;;
28447;SDS011;15675;52.870;-1.416;2023-01-28T03:45:44;45.70;;;25.50;;
28447;SDS011;15675;52.870;-1.416;2023-01-28T03:48:11;41.70;;;25.20;;
28447;SDS011;15675;52.870;-1.416;2023-01-28T03:50:39;42.40;;;25.80;;
28447;SDS011;15675;52.870;-1.416;2023-01-28T03:53:04;46.15;;;26.13;;
28447;SDS011;15675;52.870;-1.416;2023-01-28T03:55:40;46.38;;;26.33;;
28447;SDS011;15675;52.870;-1.416;2023-01-28T03:58:06;46.67;;;26.98;;
28447;SDS011;15675;52.870;-1.416;2023-01-28T04:00:32;44.92;;;26.10;;
28447;SDS011;15675;52.870;-1.416;2023-01-28T04:03:05;44.63;;;24.75;;
28447;SDS011;15675;52.870;-1.416;2023-01-28T04:05:41;47.42;;;25.95;;
28447;SDS011;15675;52.870;-1.416;2023-01-28T04:08:10;44.67;;;25.40;;
28447;SDS011;15675;52.870;-1.416;2023-01-28T04:10:37;38.70;;;23.05;;
28447;SDS011;15675;52.870;-1.416;2023-01-28T04:13:04;44.88;;;26.55;;
28447;SDS011;15675;52.870;-1.416;2023-01-28T04:15:30;41.75;;;25.05;;
28447;SDS011;15675;52.870;-1.416;2023-01-28T04:17:56;44.13;;;26.55;;
28447;SDS011;15675;52.870;-1.416;2023-01-28T04:20:21;48.40;;;26.20;;
28447;SDS011;15675;52.870;-1.416;2023-01-28T04:22:47;48.28;;;27.52;;
28447;SDS011;15675;52.870;-1.416;2023-01-28T04:25:12;49.00;;;27.15;;
28447;SDS011;15675;52.870;-1.416;2023-01-28T04:27:38;47.08;;;26.75;;
28447;SDS011;15675;52.870;-1.416;2023-01-28T04:30:03;43.72;;;25.15;;
28447;SDS011;15675;52.870;-1.416;2023-01-28T04:32:30;46.63;;;26.63;;
28447;SDS011;15675;52.870;-1.416;2023-01-28T04:34:56;45.10;;;26.63;;
28447;SDS011;15675;52.870;-1.416;2023-01-28T04:37:21;42.92;;;25.23;;
28447;SDS011;15675;52.870;-1.416;2023-01-28T04:39:47;45.35;;;24.88;;
28447;SDS011;15675;52.870;-1.416;2023-01-28T04:42:12;41.05;;;23.88;;
28447;SDS011;15675;52.870;-1.416;2023-01-28T04:44:38;42.80;;;24.92;;
28447;SDS011;15675;52.870;-1.416;2023-01-28T04:47:04;44.08;;;25.50;;
28447;SDS011;15675;52.870;-1.416;2023-01-28T04:49:29;37.60;;;23.05;;
28447;SDS011;15675;52.870;-1.416;2023-01-28T04:51:55;43.25;;;23.42;;
28447;SDS011;15675;52.870;-1.416;2023-01-28T04:54:20;38.22;;;22.90;;
28447;SDS011;15675;52.870;-1.416;2023-01-28T04:56:45;39.13;;;22.10;;
28447;SDS011;15675;52.870;-1.416;2023-01-28T04:59:11;39.63;;;22.23;;
28447;SDS011;15675;52.870;-1.416;2023-01-28T05:01:37;37.92;;;21.38;;
28447;SDS011;15675;52.870;-1.416;2023-01-28T05:04:03;42.40;;;21.45;;
28447;SDS011;15675;52.870;-1.416;2023-01-28T05:06:32;40.80;;;21.48;;
28447;SDS011;15675;52.870;-1.416;2023-01-28T05:08:58;38.92;;;20.63;;
28447;SDS011;15675;52.870;-1.416;2023-01-28T05:11:24;41.08;;;19.20;;
28447;SDS011;15675;52.870;-1.416;2023-01-28T05:13:50;33.55;;;19.15;;
28447;SDS011;15675;52.870;-1.416;2023-01-28T05:16:15;33.47;;;18.63;;
28447;SDS011;15675;52.870;-1.416;2023-01-28T05:18:41;34.83;;;19.92;;
28447;SDS011;15675;52.870;-1.416;2023-01-28T05:21:07;37.20;;;19.73;;
28447;SDS011;15675;52.870;-1.416;2023-01-28T05:23:32;33.60;;;18.50;;
28447;SDS011;15675;52.870;-1.416;2023-01-28T05:25:58;31.38;;;17.35;;
28447;SDS011;15675;52.870;-1.416;2023-01-28T05:28:24;35.10;;;19.95;;
28447;SDS011;15675;52.870;-1.416;2023-01-28T05:30:49;32.63;;;18.85;;
28447;SDS011;15675;52.870;-1.416;2023-01-28T05:33:15;31.48;;;18.40;;
28447;SDS011;15675;52.870;-1.416;2023-01-28T05:35:41;32.83;;;18.08;;
28447;SDS011;15675;52.870;-1.416;2023-01-28T05:38:07;34.83;;;19.15;;
28447;SDS011;15675;52.870;-1.416;2023-01-28T05:40:33;31.88;;;17.17;;
28447;SDS011;15675;52.870;-1.416;2023-01-28T05:42:59;30.30;;;17.33;;
28447;SDS011;15675;52.870;-1.416;2023-01-28T05:45:24;32.28;;;16.88;;
28447;SDS011;15675;52.870;-1.416;2023-01-28T05:47:50;30.60;;;16.75;;
28447;SDS011;15675;52.870;-1.416;2023-01-28T05:50:15;35.58;;;17.15;;
28447;SDS011;15675;52.870;-1.416;2023-01-28T05:52:41;30.15;;;16.45;;
28447;SDS011;15675;52.870;-1.416;2023-01-28T05:55:06;29.95;;;17.02;;
28447;SDS011;15675;52.870;-1.416;2023-01-28T05:57:33;29.63;;;17.13;;
28447;SDS011;15675;52.870;-1.416;2023-01-28T05:59:58;35.35;;;16.65;;
28447;SDS011;15675;52.870;-1.416;2023-01-28T06:02:24;32.03;;;16.38;;
28447;SDS011;15675;52.870;-1.416;2023-01-28T06:04:49;28.95;;;15.32;;
28447;SDS011;15675;52.870;-1.416;2023-01-28T06:07:15;25.23;;;15.73;;
28447;SDS011;15675;52.870;-1.416;2023-01-28T06:09:44;26.42;;;14.98;;
28447;SDS011;15675;52.870;-1.416;2023-01-28T06:12:10;25.90;;;14.60;;
28447;SDS011;15675;52.870;-1.416;2023-01-28T06:14:36;23.67;;;13.65;;
28447;SDS011;15675;52.870;-1.416;2023-01-28T06:17:01;24.25;;;13.32;;
28447;SDS011;15675;52.870;-1.416;2023-01-28T06:19:27;27.48;;;14.20;;
28447;SDS011;15675;52.870;-1.416;2023-01-28T06:21:52;27.10;;;14.18;;
28447;SDS011;15675;52.870;-1.416;2023-01-28T06:24:18;25.05;;;15.02;;
28447;SDS011;15675;52.870;-1.416;2023-01-28T06:26:43;27.92;;;14.80;;
28447;SDS011;15675;52.870;-1.416;2023-01-28T06:29:09;24.40;;;14.02;;
28447;SDS011;15675;52.870;-1.416;2023-01-28T06:31:34;25.15;;;14.02;;
28447;SDS011;15675;52.870;-1.416;2023-01-28T06:34:00;22.15;;;13.40;;
28447;SDS011;15675;52.870;-1.416;2023-01-28T06:36:26;22.58;;;13.02;;
28447;SDS011;15675;52.870;-1.416;2023-01-28T06:38:51;23.52;;;13.93;;
28447;SDS011;15675;52.870;-1.416;2023-01-28T06:41:17;23.20;;;13.57;;
28447;SDS011;15675;52.870;-1.416;2023-01-28T06:43:42;23.25;;;12.88;;
28447;SDS011;15675;52.870;-1.416;2023-01-28T06:46:08;21.77;;;11.93;;
28447;SDS011;15675;52.870;-1.416;2023-01-28T06:48:33;21.23;;;11.85;;
28447;SDS011;15675;52.870;-1.416;2023-01-28T06:50:59;20.50;;;11.88;;
28447;SDS011;15675;52.870;-1.416;2023-01-28T06:53:24;20.63;;;10.88;;
28447;SDS011;15675;52.870;-1.416;2023-01-28T06:55:50;17.95;;;10.15;;
28447;SDS011;15675;52.870;-1.416;2023-01-28T06:58:15;14.10;;;9.45;;
28447;SDS011;15675;52.870;-1.416;2023-01-28T07:00:41;19.27;;;10.52;;
28447;SDS011;15675;52.870;-1.416;2023-01-28T07:03:06;20.63;;;10.77;;
28447;SDS011;15675;52.870;-1.416;2023-01-28T07:05:32;16.20;;;9.82;;
28447;SDS011;15675;52.870;-1.416;2023-01-28T07:07:58;14.35;;;9.13;;
28447;SDS011;15675;52.870;-1.416;2023-01-28T07:10:24;16.33;;;8.48;;
28447;SDS011;15675;52.870;-1.416;2023-01-28T07:12:49;16.25;;;8.63;;
28447;SDS011;15675;52.870;-1.416;2023-01-28T07:15:15;22.80;;;9.93;;
28447;SDS011;15675;52.870;-1.416;2023-01-28T07:17:41;26.60;;;15.45;;
28447;SDS011;15675;52.870;-1.416;2023-01-28T07:20:07;15.35;;;9.05;;
28447;SDS011;15675;52.870;-1.416;2023-01-28T07:22:36;17.48;;;9.30;;
28447;SDS011;15675;52.870;-1.416;2023-01-28T07:25:03;14.55;;;8.30;;
28447;SDS011;15675;52.870;-1.416;2023-01-28T07:27:30;19.40;;;9.45;;
28447;SDS011;15675;52.870;-1.416;2023-01-28T07:29:55;14.73;;;9.20;;
28447;SDS011;15675;52.870;-1.416;2023-01-28T07:32:21;14.27;;;8.85;;
28447;SDS011;15675;52.870;-1.416;2023-01-28T07:34:46;13.52;;;8.27;;
28447;SDS011;15675;52.870;-1.416;2023-01-28T07:37:12;16.08;;;10.00;;
28447;SDS011;15675;52.870;-1.416;2023-01-28T07:39:37;18.52;;;11.02;;
28447;SDS011;15675;52.870;-1.416;2023-01-28T07:42:03;23.73;;;11.75;;
28447;SDS011;15675;52.870;-1.416;2023-01-28T07:44:28;17.15;;;9.05;;
28447;SDS011;15675;52.870;-1.416;2023-01-28T07:46:54;13.80;;;9.02;;
28447;SDS011;15675;52.870;-1.416;2023-01-28T07:49:19;15.65;;;9.20;;
28447;SDS011;15675;52.870;-1.416;2023-01-28T07:51:45;20.65;;;9.38;;
28447;SDS011;15675;52.870;-1.416;2023-01-28T07:54:11;15.93;;;9.20;;
28447;SDS011;15675;52.870;-1.416;2023-01-28T07:56:37;16.35;;;8.57;;
28447;SDS011;15675;52.870;-1.416;2023-01-28T07:59:03;14.15;;;8.50;;
28447;SDS011;15675;52.870;-1.416;2023-01-28T08:01:28;15.27;;;9.60;;
28447;SDS011;15675;52.870;-1.416;2023-01-28T08:03:54;14.52;;;9.73;;
28447;SDS011;15675;52.870;-1.416;2023-01-28T08:06:19;16.08;;;9.93;;
28447;SDS011;15675;52.870;-1.416;2023-01-28T08:08:46;17.00;;;9.73;;
28447;SDS011;15675;52.870;-1.416;2023-01-28T08:11:11;15.55;;;8.20;;
28447;SDS011;15675;52.870;-1.416;2023-01-28T08:13:37;13.95;;;8.93;;
28447;SDS011;15675;52.870;-1.416;2023-01-28T08:16:02;17.55;;;8.85;;
28447;SDS011;15675;52.870;-1.416;2023-01-28T08:18:28;15.63;;;8.88;;
28447;SDS011;15675;52.870;-1.416;2023-01-28T08:20:55;16.10;;;9.75;;
28447;SDS011;15675;52.870;-1.416;2023-01-28T08:23:21;15.48;;;7.85;;
28447;SDS011;15675;52.870;-1.416;2023-01-28T08:25:47;15.40;;;8.88;;
28447;SDS011;15675;52.870;-1.416;2023-01-28T08:28:13;14.18;;;9.18;;
28447;SDS011;15675;52.870;-1.416;2023-01-28T08:30:40;12.45;;;9.20;;
28447;SDS011;15675;52.870;-1.416;2023-01-28T08:33:07;16.20;;;9.57;;
28447;SDS011;15675;52.870;-1.416;2023-01-28T08:35:34;19.70;;;10.45;;
28447;SDS011;15675;52.870;-1.416;2023-01-28T08:38:00;13.95;;;9.10;;
28447;SDS011;15675;52.870;-1.416;2023-01-28T08:40:26;16.30;;;8.75;;
28447;SDS011;15675;52.870;-1.416;2023-01-28T08:42:53;15.85;;;9.27;;
28447;SDS011;15675;52.870;-1.416;2023-01-28T08:45:20;17.15;;;9.13;;
28447;SDS011;15675;52.870;-1.416;2023-01-28T08:47:49;16.33;;;8.95;;
28447;SDS011;15675;52.870;-1.416;2023-01-28T08:50:18;14.35;;;8.80;;
28447;SDS011;15675;52.870;-1.416;2023-01-28T08:52:47;16.27;;;8.88;;
28447;SDS011;15675;52.870;-1.416;2023-01-28T08:55:14;16.05;;;9.48;;
28447;SDS011;15675;52.870;-1.416;2023-01-28T08:57:40;16.88;;;9.45;;
28447;SDS011;15675;52.870;-1.416;2023-01-28T09:00:06;14.25;;;8.90;;
28447;SDS011;15675;52.870;-1.416;2023-01-28T09:02:35;18.33;;;9.93;;
28447;SDS011;15675;52.870;-1.416;2023-01-28T09:05:02;15.40;;;9.15;;
28447;SDS011;15675;52.870;-1.416;2023-01-28T09:07:27;14.95;;;9.93;;
28447;SDS011;15675;52.870;-1.416;2023-01-28T09:09:53;20.38;;;10.18;;
28447;SDS011;15675;52.870;-1.416;2023-01-28T09:12:18;19.95;;;9.88;;
28447;SDS011;15675;52.870;-1.416;2023-01-28T09:14:44;19.95;;;10.48;;
28447;SDS011;15675;52.870;-1.416;2023-01-28T09:17:09;20.20;;;10.80;;
28447;SDS011;15675;52.870;-1.416;2023-01-28T09:19:35;15.50;;;9.93;;
28447;SDS011;15675;52.870;-1.416;2023-01-28T09:22:02;24.25;;;12.10;;
28447;SDS011;15675;52.870;-1.416;2023-01-28T09:24:28;21.55;;;11.40;;
28447;SDS011;15675;52.870;-1.416;2023-01-28T09:26:54;19.63;;;10.98;;
28447;SDS011;15675;52.870;-1.416;2023-01-28T09:29:19;18.60;;;10.60;;
28447;SDS011;15675;52.870;-1.416;2023-01-28T09:31:45;17.63;;;10.63;;
28447;SDS011;15675;52.870;-1.416;2023-01-28T09:34:10;19.80;;;11.43;;
28447;SDS011;15675;52.870;-1.416;2023-01-28T09:36:36;24.75;;;11.80;;
28447;SDS011;15675;52.870;-1.416;2023-01-28T09:39:02;20.52;;;10.98;;
28447;SDS011;15675;52.870;-1.416;2023-01-28T09:44:24;17.60;;;11.07;;
28447;SDS011;15675;52.870;-1.416;2023-01-28T09:47:07;18.75;;;10.60;;
28447;SDS011;15675;52.870;-1.416;2023-01-28T09:49:48;17.10;;;10.02;;
28447;SDS011;15675;52.870;-1.416;2023-01-28T09:52:18;22.17;;;11.18;;
28447;SDS011;15675;52.870;-1.416;2023-01-28T09:57:42;21.38;;;10.30;;
28447;SDS011;15675;52.870;-1.416;2023-01-28T10:00:22;20.45;;;10.63;;
28447;SDS011;15675;52.870;-1.416;2023-01-28T10:03:12;25.27;;;10.75;;
28447;SDS011;15675;52.870;-1.416;2023-01-28T10:11:19;15.77;;;9.18;;
28447;SDS011;15675;52.870;-1.416;2023-01-28T10:14:12;18.30;;;8.77;;
28447;SDS011;15675;52.870;-1.416;2023-01-28T10:19:50;21.20;;;10.65;;
28447;SDS011;15675;52.870;-1.416;2023-01-28T10:22:23;19.23;;;11.25;;
28447;SDS011;15675;52.870;-1.416;2023-01-28T10:24:55;26.48;;;11.75;;
28447;SDS011;15675;52.870;-1.416;2023-01-28T10:27:27;21.65;;;11.75;;
28447;SDS011;15675;52.870;-1.416;2023-01-28T10:29:54;24.77;;;12.55;;
28447;SDS011;15675;52.870;-1.416;2023-01-28T10:32:29;16.30;;;9.93;;
28447;SDS011;15675;52.870;-1.416;2023-01-28T10:34:58;22.30;;;11.73;;
28447;SDS011;15675;52.870;-1.416;2023-01-28T10:37:26;24.30;;;12.40;;
28447;SDS011;15675;52.870;-1.416;2023-01-28T10:39:53;20.75;;;12.27;;
28447;SDS011;15675;52.870;-1.416;2023-01-28T10:42:32;23.13;;;12.95;;
28447;SDS011;15675;52.870;-1.416;2023-01-28T10:45:00;24.45;;;13.57;;
28447;SDS011;15675;52.870;-1.416;2023-01-28T10:47:48;20.52;;;11.35;;
28447;SDS011;15675;52.870;-1.416;2023-01-28T10:50:25;25.50;;;12.98;;
28447;SDS011;15675;52.870;-1.416;2023-01-28T10:52:55;24.63;;;13.00;;
28447;SDS011;15675;52.870;-1.416;2023-01-28T10:55:22;28.38;;;13.23;;
28447;SDS011;15675;52.870;-1.416;2023-01-28T10:57:51;22.35;;;12.32;;
28447;SDS011;15675;52.870;-1.416;2023-01-28T11:00:22;26.58;;;13.57;;
28447;SDS011;15675;52.870;-1.416;2023-01-28T11:02:53;22.35;;;12.40;;
28447;SDS011;15675;52.870;-1.416;2023-01-28T11:07:50;19.90;;;13.13;;
28447;SDS011;15675;52.870;-1.416;2023-01-28T11:10:30;18.38;;;11.13;;
28447;SDS011;15675;52.870;-1.416;2023-01-28T11:12:58;26.52;;;11.80;;
28447;SDS011;15675;52.870;-1.416;2023-01-28T11:15:27;23.45;;;13.48;;
28447;SDS011;15675;52.870;-1.416;2023-01-28T11:17:58;20.40;;;12.35;;
28447;SDS011;15675;52.870;-1.416;2023-01-28T11:20:27;23.33;;;11.63;;
28447;SDS011;15675;52.870;-1.416;2023-01-28T11:22:55;27.65;;;12.80;;
28447;SDS011;15675;52.870;-1.416;2023-01-28T11:27:54;21.55;;;12.45;;
28447;SDS011;15675;52.870;-1.416;2023-01-28T11:30:33;23.00;;;11.95;;
28447;SDS011;15675;52.870;-1.416;2023-01-28T11:35:51;24.20;;;11.75;;
28447;SDS011;15675;52.870;-1.416;2023-01-28T11:38:45;22.83;;;12.25;;
28447;SDS011;15675;52.870;-1.416;2023-01-28T11:41:12;23.55;;;12.57;;
28447;SDS011;15675;52.870;-1.416;2023-01-28T11:43:40;21.23;;;11.63;;
28447;SDS011;15675;52.870;-1.416;2023-01-28T11:51:39;18.42;;;10.75;;
28447;SDS011;15675;52.870;-1.416;2023-01-28T12:08:31;20.90;;;10.20;;
28447;SDS011;15675;52.870;-1.416;2023-01-28T12:11:11;19.02;;;10.02;;
28447;SDS011;15675;52.870;-1.416;2023-01-28T12:36:02;16.40;;;7.38;;
28447;SDS011;15675;52.870;-1.416;2023-01-28T12:41:04;8.18;;;5.35;;
28447;SDS011;15675;52.870;-1.416;2023-01-28T12:43:45;8.02;;;4.53;;
28447;SDS011;15675;52.870;-1.416;2023-01-28T12:46:28;10.02;;;4.63;;
28447;SDS011;15675;52.870;-1.416;2023-01-28T12:49:08;7.97;;;4.28;;
28447;SDS011;15675;52.870;-1.416;2023-01-28T12:51:46;8.60;;;3.42;;
28447;SDS011;15675;52.870;-1.416;2023-01-28T12:54:27;7.03;;;3.50;;
28447;SDS011;15675;52.870;-1.416;2023-01-28T12:56:58;7.15;;;3.45;;
28447;SDS011;15675;52.870;-1.416;2023-01-28T12:59:28;7.70;;;3.53;;
28447;SDS011;15675;52.870;-1.416;2023-01-28T13:04:41;9.57;;;3.95;;
28447;SDS011;15675;52.870;-1.416;2023-01-28T13:10:05;8.73;;;5.10;;
28447;SDS011;15675;52.870;-1.416;2023-01-28T13:12:49;10.93;;;4.47;;
28447;SDS011;15675;52.870;-1.416;2023-01-28T13:15:15;6.40;;;3.45;;
28447;SDS011;15675;52.870;-1.416;2023-01-28T13:17:59;6.25;;;3.53;;
28447;SDS011;15675;52.870;-1.416;2023-01-28T13:26:40;8.05;;;3.72;;
28447;SDS011;15675;52.870;-1.416;2023-01-28T13:29:16;5.88;;;3.25;;
28447;SDS011;15675;52.870;-1.416;2023-01-28T13:31:45;7.03;;;3.53;;
28447;SDS011;15675;52.870;-1.416;2023-01-28T13:36:57;5.22;;;3.67;;
28447;SDS011;15675;52.870;-1.416;2023-01-28T13:39:26;7.18;;;4.00;;
28447;SDS011;15675;52.870;-1.416;2023-01-28T13:44:43;4.72;;;3.17;;
28447;SDS011;15675;52.870;-1.416;2023-01-28T13:47:19;7.75;;;3.40;;
28447;SDS011;15675;52.870;-1.416;2023-01-28T13:49:55;8.73;;;4.35;;
28447;SDS011;15675;52.870;-1.416;2023-01-28T13:52:28;6.70;;;3.42;;
28447;SDS011;15675;52.870;-1.416;2023-01-28T14:05:15;8.70;;;3.22;;
28447;SDS011;15675;52.870;-1.416;2023-01-28T14:08:21;10.00;;;3.78;;
28447;SDS011;15675;52.870;-1.416;2023-01-28T14:19:28;5.88;;;3.70;;
28447;SDS011;15675;52.870;-1.416;2023-01-28T14:21:57;7.45;;;3.10;;
28447;SDS011;15675;52.870;-1.416;2023-01-28T14:24:23;3.92;;;2.70;;
28447;SDS011;15675;52.870;-1.416;2023-01-28T14:29:58;4.00;;;2.85;;
28447;SDS011;15675;52.870;-1.416;2023-01-28T14:32:46;4.82;;;2.83;;
28447;SDS011;15675;52.870;-1.416;2023-01-28T14:35:15;3.13;;;2.40;;
28447;SDS011;15675;52.870;-1.416;2023-01-28T14:37:47;12.45;;;2.92;;
28447;SDS011;15675;52.870;-1.416;2023-01-28T14:40:15;3.72;;;2.75;;
28447;SDS011;15675;52.870;-1.416;2023-01-28T14:42:45;3.70;;;2.40;;
28447;SDS011;15675;52.870;-1.416;2023-01-28T14:59:15;6.43;;;3.03;;
28447;SDS011;15675;52.870;-1.416;2023-01-28T15:01:45;8.00;;;3.20;;
28447;SDS011;15675;52.870;-1.416;2023-01-28T15:04:28;6.22;;;2.97;;
28447;SDS011;15675;52.870;-1.416;2023-01-28T15:06:56;5.50;;;2.50;;
28447;SDS011;15675;52.870;-1.416;2023-01-28T15:09:26;6.38;;;3.08;;
28447;SDS011;15675;52.870;-1.416;2023-01-28T15:11:53;8.27;;;4.15;;
28447;SDS011;15675;52.870;-1.416;2023-01-28T15:14:27;10.30;;;3.17;;
28447;SDS011;15675;52.870;-1.416;2023-01-28T15:16:55;6.90;;;3.22;;
28447;SDS011;15675;52.870;-1.416;2023-01-28T15:19:31;7.10;;;3.65;;
28447;SDS011;15675;52.870;-1.416;2023-01-28T15:22:00;6.50;;;3.80;;
28447;SDS011;15675;52.870;-1.416;2023-01-28T15:24:28;5.95;;;3.60;;
28447;SDS011;15675;52.870;-1.416;2023-01-28T15:26:56;6.85;;;3.33;;
28447;SDS011;15675;52.870;-1.416;2023-01-28T15:29:22;5.05;;;2.90;;
28447;SDS011;15675;52.870;-1.416;2023-01-28T15:31:50;8.05;;;3.63;;
28447;SDS011;15675;52.870;-1.416;2023-01-28T15:34:17;5.40;;;3.65;;
28447;SDS011;15675;52.870;-1.416;2023-01-28T15:36:44;8.25;;;3.78;;
28447;SDS011;15675;52.870;-1.416;2023-01-28T15:39:15;9.20;;;5.35;;
28447;SDS011;15675;52.870;-1.416;2023-01-28T15:42:02;8.50;;;5.35;;
28447;SDS011;15675;52.870;-1.416;2023-01-28T15:45:03;9.88;;;5.38;;
28447;SDS011;15675;52.870;-1.416;2023-01-28T15:47:30;9.20;;;5.33;;
28447;SDS011;15675;52.870;-1.416;2023-01-28T15:49:58;8.00;;;5.15;;
28447;SDS011;15675;52.870;-1.416;2023-01-28T15:52:34;9.35;;;5.75;;
28447;SDS011;15675;52.870;-1.416;2023-01-28T15:55:03;8.70;;;4.97;;
28447;SDS011;15675;52.870;-1.416;2023-01-28T15:57:31;15.23;;;6.18;;
28447;SDS011;15675;52.870;-1.416;2023-01-28T16:00:18;12.38;;;6.82;;
28447;SDS011;15675;52.870;-1.416;2023-01-28T16:02:48;13.85;;;7.18;;
28447;SDS011;15675;52.870;-1.416;2023-01-28T16:05:28;14.65;;;8.80;;
28447;SDS011;15675;52.870;-1.416;2023-01-28T16:08:00;11.93;;;7.57;;
28447;SDS011;15675;52.870;-1.416;2023-01-28T16:10:28;17.55;;;6.68;;
28447;SDS011;15675;52.870;-1.416;2023-01-28T16:12:57;8.27;;;6.10;;
28447;SDS011;15675;52.870;-1.416;2023-01-28T16:15:30;13.05;;;6.72;;
28447;SDS011;15675;52.870;-1.416;2023-01-28T16:17:57;10.52;;;5.90;;
28447;SDS011;15675;52.870;-1.416;2023-01-28T16:20:27;21.00;;;6.80;;
28447;SDS011;15675;52.870;-1.416;2023-01-28T16:22:55;9.77;;;6.55;;
28447;SDS011;15675;52.870;-1.416;2023-01-28T16:27:55;12.77;;;6.63;;
28447;SDS011;15675;52.870;-1.416;2023-01-28T16:30:21;12.52;;;6.97;;
28447;SDS011;15675;52.870;-1.416;2023-01-28T16:32:47;12.07;;;6.35;;
28447;SDS011;15675;52.870;-1.416;2023-01-28T16:35:14;14.05;;;6.80;;
28447;SDS011;15675;52.870;-1.416;2023-01-28T16:37:42;15.82;;;7.95;;
28447;SDS011;15675;52.870;-1.416;2023-01-28T16:40:09;10.55;;;7.22;;
28447;SDS011;15675;52.870;-1.416;2023-01-28T16:42:36;10.95;;;7.30;;
28447;SDS011;15675;52.870;-1.416;2023-01-28T16:45:02;15.38;;;8.02;;
28447;SDS011;15675;52.870;-1.416;2023-01-28T16:47:28;14.43;;;8.13;;
28447;SDS011;15675;52.870;-1.416;2023-01-28T16:49:53;12.13;;;7.75;;
28447;SDS011;15675;52.870;-1.416;2023-01-28T16:52:19;15.40;;;9.13;;
28447;SDS011;15675;52.870;-1.416;2023-01-28T16:54:44;16.98;;;9.52;;
28447;SDS011;15675;52.870;-1.416;2023-01-28T16:57:13;13.35;;;9.10;;
28447;SDS011;15675;52.870;-1.416;2023-01-28T16:59:41;14.57;;;9.20;;